createdAt,value
2019-03-23T00:02:05.204Z,101936.73
2019-03-23T00:04:33.636Z,101934.88
2019-03-23T00:07:02.135Z,101942.52
2019-03-23T00:09:30.570Z,101940.79
2019-03-23T00:11:59.041Z,101942.53
2019-03-23T00:14:27.472Z,101944.89
2019-03-23T00:16:55.904Z,101945.40
2019-03-23T00:19:24.299Z,101946.16
2019-03-23T00:21:52.688Z,101954.63
2019-03-23T00:24:21.164Z,101949.31
2019-03-23T00:26:49.586Z,101952.77
2019-03-23T00:29:18.016Z,101959.48
2019-03-23T00:31:46.408Z,101966.11
2019-03-23T00:34:14.959Z,101964.69
2019-03-23T00:36:43.446Z,101966.34
2019-03-23T00:39:11.854Z,101967.81
2019-03-23T00:41:40.248Z,101968.03
2019-03-23T00:44:08.758Z,101967.23
2019-03-23T00:46:37.182Z,101968.31
2019-03-23T00:49:05.642Z,101966.76
2019-03-23T00:51:34.037Z,101975.97
2019-03-23T00:54:02.459Z,101971.22
2019-03-23T00:56:30.864Z,101974.48
2019-03-23T00:58:59.349Z,101981.13
2019-03-23T01:01:27.761Z,101978.06
2019-03-23T01:03:56.156Z,101978.10
2019-03-23T01:06:24.586Z,101663.09
2019-03-23T01:08:53.005Z,101977.35
2019-03-23T01:11:21.486Z,101982.41
2019-03-23T01:13:49.888Z,101981.72
2019-03-23T01:16:18.320Z,101983.95
2019-03-23T01:18:46.744Z,101990.85
2019-03-23T01:21:15.145Z,101990.19
2019-03-23T01:23:43.605Z,101991.38
2019-03-23T01:26:12.044Z,101997.28
2019-03-23T01:28:40.501Z,101996.63
2019-03-23T01:31:08.920Z,101998.56
2019-03-23T01:33:37.314Z,101999.64
2019-03-23T01:36:05.765Z,101992.98
2019-03-23T01:38:34.169Z,101988.16
2019-03-23T01:41:02.564Z,101988.30
2019-03-23T01:43:30.999Z,101990.91
2019-03-23T01:45:59.404Z,101995.45
2019-03-23T01:48:27.826Z,101995.61
2019-03-23T01:50:56.256Z,101993.27
2019-03-23T01:53:24.670Z,102001.36
2019-03-23T01:55:53.235Z,101995.87
2019-03-23T01:58:21.660Z,102000.16
2019-03-23T02:00:50.106Z,101999.47
2019-03-23T02:03:18.513Z,102000.09
2019-03-23T02:05:47.028Z,102002.41
2019-03-23T02:08:15.428Z,101999.80
2019-03-23T02:10:43.838Z,102002.77
2019-03-23T02:13:12.293Z,102007.80
2019-03-23T02:15:40.729Z,102017.08
2019-03-23T02:18:09.196Z,102020.57
2019-03-23T02:20:37.703Z,102019.54
2019-03-23T02:23:06.108Z,102024.64
2019-03-23T02:25:34.536Z,102025.37
2019-03-23T02:28:03.093Z,102042.02
2019-03-23T02:30:31.534Z,102036.99
2019-03-23T02:32:59.925Z,102055.67
2019-03-23T02:35:28.370Z,102050.04
2019-03-23T02:37:56.755Z,102051.05
2019-03-23T02:40:25.191Z,102056.70
2019-03-23T02:42:53.611Z,102055.74
2019-03-23T02:45:22.002Z,102057.48
2019-03-23T02:47:50.467Z,102065.23
2019-03-23T02:50:18.899Z,102055.80
2019-03-23T02:52:47.324Z,102061.00
2019-03-23T02:55:15.718Z,102072.13
2019-03-23T02:57:44.213Z,102069.05
2019-03-23T03:00:17.144Z,102081.82
2019-03-23T03:02:45.583Z,102079.47
2019-03-23T03:05:14.141Z,102080.50
2019-03-23T03:07:43.830Z,102078.91
2019-03-23T03:10:14.847Z,102076.49
2019-03-23T03:12:43.254Z,102076.54
2019-03-23T03:15:11.917Z,102084.45
2019-03-23T03:17:40.398Z,102088.41
2019-03-23T03:20:10.192Z,102090.16
2019-03-23T03:22:38.587Z,102095.58
2019-03-23T03:25:07.629Z,102089.50
2019-03-23T03:27:36.165Z,102096.91
2019-03-23T03:30:07.011Z,102099.95
2019-03-23T03:32:35.444Z,102099.47
2019-03-23T03:35:04.706Z,102090.21
2019-03-23T03:37:33.112Z,102101.53
2019-03-23T03:40:01.512Z,102100.27
2019-03-23T03:42:29.949Z,102094.58
2019-03-23T03:44:58.378Z,102104.69
2019-03-23T03:47:26.777Z,102102.50
2019-03-23T03:49:55.207Z,102102.97
2019-03-23T03:52:23.606Z,102101.30
2019-03-23T03:54:52.117Z,102099.22
2019-03-23T03:57:20.524Z,102098.39
2019-03-23T03:59:48.946Z,102102.80
2019-03-23T04:02:17.354Z,102103.54
2019-03-23T04:04:45.779Z,102101.66
2019-03-23T04:07:14.214Z,102106.02
2019-03-23T04:09:42.632Z,102103.08
2019-03-23T04:12:11.019Z,102114.59
2019-03-23T04:14:39.437Z,102116.27
2019-03-23T04:17:07.922Z,102109.13
2019-03-23T04:19:36.373Z,102115.75
2019-03-23T04:22:04.963Z,102123.11
2019-03-23T04:24:33.360Z,102119.09
2019-03-23T04:27:03.417Z,102117.82
2019-03-23T04:29:31.847Z,102121.91
2019-03-23T04:32:00.338Z,102120.64
2019-03-23T04:34:28.787Z,102120.70
2019-03-23T04:36:57.262Z,102123.99
2019-03-23T04:39:25.667Z,102127.48
2019-03-23T04:41:54.097Z,102121.75
2019-03-23T04:44:22.514Z,102124.03
2019-03-23T04:46:50.989Z,102125.91
2019-03-23T04:49:19.444Z,102126.78
2019-03-23T04:51:47.856Z,102132.82
2019-03-23T04:54:16.279Z,102135.84
2019-03-23T04:56:44.712Z,102139.26
2019-03-23T04:59:13.116Z,102138.86
2019-03-23T05:01:41.545Z,102146.97
2019-03-23T05:04:09.941Z,101650.52
2019-03-23T05:06:38.341Z,102154.29
2019-03-23T05:09:09.022Z,102149.36
2019-03-23T05:11:37.505Z,102147.02
2019-03-23T05:14:05.938Z,102154.72
2019-03-23T05:16:34.356Z,102151.30
2019-03-23T05:19:02.769Z,102160.90
2019-03-23T05:21:31.196Z,102163.11
2019-03-23T05:23:59.597Z,102155.16
2019-03-23T05:26:28.028Z,102159.45
2019-03-23T05:28:56.434Z,102164.16
2019-03-23T05:31:24.878Z,102162.47
2019-03-23T05:33:53.307Z,102164.95
2019-03-23T05:36:21.720Z,102157.44
2019-03-23T05:38:50.230Z,102165.29
2019-03-23T05:41:18.622Z,102159.25
2019-03-23T05:43:47.045Z,102158.91
2019-03-23T05:46:15.473Z,102159.05
2019-03-23T05:48:46.829Z,102166.30
2019-03-23T05:51:15.244Z,102168.58
2019-03-23T05:53:43.668Z,102175.75
2019-03-23T05:56:12.087Z,102175.28
2019-03-23T05:58:40.555Z,102175.92
2019-03-23T06:01:08.981Z,102182.47
2019-03-23T06:03:37.397Z,102178.77
2019-03-23T06:06:05.896Z,102186.19
2019-03-23T06:08:34.297Z,102181.63
2019-03-23T06:11:02.716Z,102186.59
2019-03-23T06:13:31.136Z,102186.63
2019-03-23T06:15:59.538Z,102190.25
2019-03-23T06:18:28.023Z,102192.50
2019-03-23T06:20:56.495Z,102195.18
2019-03-23T06:23:24.899Z,102198.00
2019-03-23T06:25:53.327Z,102203.80
2019-03-23T06:28:21.760Z,102198.30
2019-03-23T06:30:50.226Z,102202.30
2019-03-23T06:33:18.645Z,102206.19
2019-03-23T06:35:47.055Z,102201.55
2019-03-23T06:38:16.397Z,102202.36
2019-03-23T06:40:44.928Z,102202.77
2019-03-23T06:43:13.399Z,102206.52
2019-03-23T06:45:41.821Z,102202.83
2019-03-23T06:48:10.232Z,102201.76
2019-03-23T06:50:38.632Z,102202.83
2019-03-23T06:53:07.073Z,102202.23
2019-03-23T06:55:35.475Z,102207.47
2019-03-23T06:58:03.979Z,102204.71
2019-03-23T07:00:32.402Z,102207.86
2019-03-23T07:03:00.818Z,102205.38
2019-03-23T07:05:29.229Z,102208.50
2019-03-23T07:07:57.652Z,102214.23
2019-03-23T07:10:26.057Z,102213.30
2019-03-23T07:12:54.483Z,102212.36
2019-03-23T07:15:22.902Z,102211.96
2019-03-23T07:17:52.094Z,102217.59
2019-03-23T07:20:20.513Z,102212.50
2019-03-23T07:22:48.934Z,102219.64
2019-03-23T07:25:17.353Z,102219.77
2019-03-23T07:27:48.942Z,102224.74
2019-03-23T07:33:11.394Z,102229.03
2019-03-23T07:35:39.930Z,102234.27
2019-03-23T07:38:10.011Z,102234.53
2019-03-23T07:40:41.457Z,102236.15
2019-03-23T07:43:09.867Z,102235.54
2019-03-23T07:45:38.299Z,102242.33
2019-03-23T07:48:06.852Z,102246.78
2019-03-23T07:50:36.819Z,102247.19
2019-03-23T07:53:05.268Z,102240.47
2019-03-23T07:55:33.685Z,102239.45
2019-03-23T07:58:02.100Z,102241.80
2019-03-23T08:00:30.519Z,102246.38
2019-03-23T08:02:58.933Z,102246.84
2019-03-23T08:05:27.344Z,102247.24
2019-03-23T08:07:57.496Z,102248.41
2019-03-23T08:10:37.675Z,102243.91
2019-03-23T08:13:14.277Z,102247.86
2019-03-23T08:16:12.834Z,102244.69
2019-03-23T08:18:28.417Z,102240.47
2019-03-23T08:21:04.103Z,102248.41
2019-03-23T08:23:38.929Z,102248.58
2019-03-23T08:26:11.475Z,102249.11
2019-03-23T08:28:39.880Z,102244.19
2019-03-23T08:31:12.385Z,102250.63
2019-03-23T08:33:40.793Z,102242.50
2019-03-23T08:36:09.335Z,102243.78
2019-03-23T08:38:37.767Z,102248.08
2019-03-23T08:41:06.187Z,102243.78
2019-03-23T08:43:37.375Z,102247.27
2019-03-23T08:46:05.825Z,102248.33
2019-03-23T08:48:34.254Z,102249.76
2019-03-23T08:51:02.701Z,102251.28
2019-03-23T08:53:31.130Z,102255.23
2019-03-23T08:55:59.561Z,102249.20
2019-03-23T08:58:29.608Z,102249.20
2019-03-23T09:00:59.288Z,102247.80
2019-03-23T09:03:27.788Z,102251.00
2019-03-23T09:05:56.224Z,102260.41
2019-03-23T09:08:24.734Z,102255.36
2019-03-23T09:10:53.136Z,102251.40
2019-03-23T09:13:21.572Z,102257.03
2019-03-23T09:15:49.983Z,102258.19
2019-03-23T09:18:18.521Z,102258.66
2019-03-23T09:20:46.943Z,102265.73
2019-03-23T09:23:15.344Z,102264.77
2019-03-23T09:25:45.621Z,102263.84
2019-03-23T09:28:13.918Z,102262.84
2019-03-23T09:30:42.325Z,102266.16
2019-03-23T09:33:10.754Z,102267.50
2019-03-23T09:35:39.632Z,102272.71
2019-03-23T09:38:08.229Z,102273.41
2019-03-23T09:40:36.624Z,102277.36
2019-03-23T09:43:05.114Z,102269.57
2019-03-23T09:45:33.576Z,102273.06
2019-03-23T09:48:01.957Z,102272.61
2019-03-23T09:50:30.371Z,102277.14
2019-03-23T09:52:58.784Z,102283.12
2019-03-23T09:55:28.682Z,102277.20
2019-03-23T09:57:57.238Z,102283.30
2019-03-23T10:00:25.681Z,102284.11
2019-03-23T10:02:54.119Z,102284.52
2019-03-23T10:05:22.530Z,102283.70
2019-03-23T10:07:50.963Z,102281.21
2019-03-23T10:10:22.060Z,102286.79
2019-03-23T10:12:49.527Z,102283.98
2019-03-23T10:15:17.939Z,102290.26
2019-03-23T10:17:46.335Z,102293.16
2019-03-23T10:20:14.870Z,102286.30
2019-03-23T10:22:43.391Z,102290.54
2019-03-23T10:25:11.800Z,102295.48
2019-03-23T10:27:40.217Z,102294.68
2019-03-23T10:30:10.599Z,102286.27
2019-03-23T10:32:39.079Z,102285.80
2019-03-23T10:35:08.936Z,102283.30
2019-03-23T10:37:37.442Z,102285.20
2019-03-23T10:40:08.217Z,102284.57
2019-03-23T10:42:36.718Z,102280.80
2019-03-23T10:45:07.959Z,102294.05
2019-03-23T10:47:36.520Z,102292.17
2019-03-23T10:50:06.641Z,102291.37
2019-03-23T10:52:35.309Z,102291.30
2019-03-23T10:55:05.907Z,102287.19
2019-03-23T10:57:34.401Z,102284.47
2019-03-23T11:00:03.281Z,102290.45
2019-03-23T11:02:31.688Z,102289.73
2019-03-23T11:05:00.128Z,102284.25
2019-03-23T11:07:28.687Z,102285.09
2019-03-23T11:09:57.416Z,102287.97
2019-03-23T11:12:25.836Z,102289.17
2019-03-23T11:14:54.254Z,102286.73
2019-03-23T11:17:22.755Z,102284.18
2019-03-23T11:19:51.165Z,102281.05
2019-03-23T11:22:19.610Z,102273.64
2019-03-23T11:24:48.022Z,102273.34
2019-03-23T11:27:16.449Z,102278.63
2019-03-23T11:29:44.894Z,102278.00
2019-03-23T11:32:13.959Z,102285.43
2019-03-23T11:34:42.427Z,102280.31
2019-03-23T11:37:10.911Z,102279.97
2019-03-23T11:39:39.322Z,102281.44
2019-03-23T11:42:07.758Z,102282.16
2019-03-23T11:44:36.164Z,102281.61
2019-03-23T11:47:04.834Z,102286.71
2019-03-23T11:49:33.308Z,102288.84
2019-03-23T11:52:01.800Z,102284.90
2019-03-23T11:54:30.238Z,102280.84
2019-03-23T11:56:58.641Z,102278.61
2019-03-23T11:59:27.083Z,102282.70
2019-03-23T12:01:55.491Z,102273.05
2019-03-23T12:04:25.062Z,102277.63
2019-03-23T12:06:53.748Z,102275.96
2019-03-23T12:09:22.163Z,102276.97
2019-03-23T12:11:50.586Z,102280.97
2019-03-23T12:14:19.028Z,102288.30
2019-03-23T12:16:47.426Z,102283.72
2019-03-23T12:19:15.852Z,102279.31
2019-03-23T12:21:44.284Z,102272.95
2019-03-23T12:24:12.818Z,102276.25
2019-03-23T12:26:41.236Z,102272.81
2019-03-23T12:29:09.638Z,102282.38
2019-03-23T12:31:38.077Z,102283.87
2019-03-23T12:34:06.546Z,102286.68
2019-03-23T12:36:34.969Z,102284.80
2019-03-23T12:39:04.728Z,102285.49
2019-03-23T12:41:33.143Z,102279.54
2019-03-23T12:44:01.597Z,102283.11
2019-03-23T12:46:30.040Z,102281.19
2019-03-23T12:48:58.463Z,102281.23
2019-03-23T12:51:26.884Z,102287.23
2019-03-23T12:53:55.330Z,102289.58
2019-03-23T12:56:23.730Z,102291.00
2019-03-23T12:58:52.163Z,102277.11
2019-03-23T13:01:20.576Z,102279.92
2019-03-23T13:03:49.022Z,102285.05
2019-03-23T13:06:17.594Z,102284.13
2019-03-23T13:08:45.996Z,102280.19
2019-03-23T13:11:23.066Z,102281.61
2019-03-23T13:13:44.561Z,102282.10
2019-03-23T13:16:13.000Z,102280.13
2019-03-23T13:18:41.428Z,102282.31
2019-03-23T13:21:12.989Z,102277.09
2019-03-23T13:23:41.433Z,102272.97
2019-03-23T13:26:09.843Z,102276.73
2019-03-23T13:28:38.323Z,102268.38
2019-03-23T13:31:06.760Z,102270.27
2019-03-23T13:33:35.157Z,102269.89
2019-03-23T13:36:03.681Z,102267.87
2019-03-23T13:38:32.090Z,102262.16
2019-03-23T13:41:02.502Z,102262.61
2019-03-23T13:43:30.923Z,102261.66
2019-03-23T13:45:59.346Z,102267.16
2019-03-23T13:48:27.781Z,102263.39
2019-03-23T13:50:56.228Z,102258.39
2019-03-23T13:53:24.657Z,102260.42
2019-03-23T13:55:53.163Z,102259.00
2019-03-23T13:58:21.669Z,102254.28
2019-03-23T14:00:50.261Z,102255.06
2019-03-23T14:03:18.756Z,102255.86
2019-03-23T14:05:47.158Z,102247.03
2019-03-23T14:08:15.588Z,102250.14
2019-03-23T14:10:44.065Z,102258.59
2019-03-23T14:13:12.533Z,102257.59
2019-03-23T14:15:40.994Z,102257.52
2019-03-23T14:18:09.430Z,102255.95
2019-03-23T14:20:37.863Z,102250.27
2019-03-23T14:23:06.345Z,102249.58
2019-03-23T14:25:34.856Z,102244.06
2019-03-23T14:28:03.279Z,102247.46
2019-03-23T14:30:31.782Z,102248.41
2019-03-23T14:33:00.185Z,102250.77
2019-03-23T14:35:28.686Z,102247.79
2019-03-23T14:37:57.111Z,102249.20
2019-03-23T14:40:25.516Z,102250.03
2019-03-23T14:42:53.934Z,102247.20
2019-03-23T14:45:22.495Z,102252.67
2019-03-23T14:47:50.888Z,102261.45
2019-03-23T14:50:19.318Z,102259.62
2019-03-23T14:52:47.731Z,102258.25
2019-03-23T14:55:16.193Z,102256.09
2019-03-23T14:57:44.612Z,102265.91
2019-03-23T15:00:13.987Z,102264.63
2019-03-23T15:02:42.411Z,102264.16
2019-03-23T15:05:10.914Z,102265.41
2019-03-23T15:07:39.329Z,102267.14
2019-03-23T15:10:09.458Z,102263.59
2019-03-23T15:12:37.888Z,102266.98
2019-03-23T15:15:08.269Z,102265.61
2019-03-23T15:17:36.688Z,102263.36
2019-03-23T15:20:06.589Z,102262.95
2019-03-23T15:22:35.024Z,102267.58
2019-03-23T15:25:03.932Z,102266.62
2019-03-23T15:27:32.401Z,102261.31
2019-03-23T15:30:00.913Z,102255.77
2019-03-23T15:32:29.391Z,102254.45
2019-03-23T15:34:57.818Z,102251.92
2019-03-23T15:37:26.280Z,102250.19
2019-03-23T15:39:54.726Z,102255.77
2019-03-23T15:42:24.912Z,102253.70
2019-03-23T15:44:53.300Z,102261.85
2019-03-23T15:47:21.707Z,102249.36
2019-03-23T15:49:50.142Z,102251.59
2019-03-23T15:52:18.617Z,102245.51
2019-03-23T15:54:47.067Z,102253.58
2019-03-23T15:57:15.453Z,102257.79
2019-03-23T15:59:43.892Z,102252.16
2019-03-23T16:02:12.284Z,102260.27
2019-03-23T16:04:40.714Z,102253.80
2019-03-23T16:07:09.205Z,102252.94
2019-03-23T16:09:37.608Z,102249.00
2019-03-23T16:12:06.125Z,102248.53
2019-03-23T16:14:34.562Z,102258.34
2019-03-23T16:17:03.013Z,102256.52
2019-03-23T16:19:31.470Z,102262.84
2019-03-23T16:21:59.924Z,102252.44
2019-03-23T16:24:28.346Z,102251.61
2019-03-23T16:26:56.760Z,102259.35
2019-03-23T16:29:25.204Z,102255.46
2019-03-23T16:31:53.676Z,102251.52
2019-03-23T16:34:22.110Z,102253.63
2019-03-23T16:36:50.511Z,102249.78
2019-03-23T16:39:18.933Z,102253.17
2019-03-23T16:41:47.341Z,102250.14
2019-03-23T16:44:15.767Z,102250.55
2019-03-23T16:46:44.266Z,102252.20
2019-03-23T16:49:12.687Z,102255.23
2019-03-23T16:51:41.101Z,102247.95
2019-03-23T16:54:09.520Z,102252.25
2019-03-23T16:56:37.977Z,102248.36
2019-03-23T16:59:06.487Z,102252.66
2019-03-23T17:01:34.917Z,102248.41
2019-03-23T17:04:03.469Z,102249.69
2019-03-23T17:06:31.899Z,102247.08
2019-03-23T17:09:00.369Z,102247.86
2019-03-23T17:11:28.801Z,102237.10
2019-03-23T17:13:57.215Z,102243.92
2019-03-23T17:16:25.723Z,102242.55
2019-03-23T17:18:54.132Z,102236.91
2019-03-23T17:21:22.558Z,102235.63
2019-03-23T17:23:50.967Z,102239.48
2019-03-23T17:26:19.402Z,102243.32
2019-03-23T17:28:47.815Z,102243.73
2019-03-23T17:31:16.249Z,102239.84
2019-03-23T17:33:44.661Z,102247.13
2019-03-23T17:36:13.086Z,102250.09
2019-03-23T17:38:41.498Z,102244.88
2019-03-23T17:41:10.494Z,102252.56
2019-03-23T17:43:40.760Z,102248.26
2019-03-23T17:46:09.238Z,102258.46
2019-03-23T17:48:37.656Z,102250.23
2019-03-23T17:51:07.116Z,102256.23
2019-03-23T17:53:35.801Z,102255.72
2019-03-23T17:56:06.352Z,102257.41
2019-03-23T17:58:34.645Z,102254.34
2019-03-23T18:01:03.205Z,102260.75
2019-03-23T18:03:31.643Z,102261.52
2019-03-23T18:06:00.057Z,102261.06
2019-03-23T18:08:28.563Z,102261.47
2019-03-23T18:10:57.069Z,102261.06
2019-03-23T18:13:25.515Z,102260.55
2019-03-23T18:15:54.000Z,102265.68
2019-03-23T18:18:22.449Z,102260.83
2019-03-23T18:20:54.550Z,102260.45
2019-03-23T18:23:23.058Z,102267.32
2019-03-23T18:25:51.619Z,102272.03
2019-03-23T18:28:20.095Z,102267.73
2019-03-23T18:30:49.684Z,102271.08
2019-03-23T18:33:18.101Z,102271.44
2019-03-23T18:35:46.507Z,102270.57
2019-03-23T18:38:15.010Z,102273.55
2019-03-23T18:40:43.570Z,102274.88
2019-03-23T18:43:12.139Z,102268.42
2019-03-23T18:45:40.570Z,102270.06
2019-03-23T18:48:09.113Z,102271.75
2019-03-23T18:50:37.556Z,102264.88
2019-03-23T18:53:06.036Z,102274.72
2019-03-23T18:55:34.721Z,102274.67
2019-03-23T18:58:03.135Z,102277.65
2019-03-23T19:00:42.172Z,102270.83
2019-03-23T19:03:10.874Z,102279.29
2019-03-23T19:05:39.440Z,102275.85
2019-03-23T19:08:08.147Z,102276.73
2019-03-23T19:10:36.704Z,102280.87
2019-03-23T19:13:05.491Z,102285.13
2019-03-23T19:15:33.983Z,102286.88
2019-03-23T19:18:02.541Z,102278.31
2019-03-23T19:20:31.136Z,102288.11
2019-03-23T19:22:59.614Z,102291.08
2019-03-23T19:25:28.167Z,102291.02
2019-03-23T19:27:56.616Z,102286.17
2019-03-23T19:30:25.270Z,102289.09
2019-03-23T19:32:53.704Z,102293.34
2019-03-23T19:35:22.286Z,102298.01
2019-03-23T19:37:50.683Z,102294.94
2019-03-23T19:40:19.270Z,102295.75
2019-03-23T19:42:47.737Z,102287.20
2019-03-23T19:45:16.229Z,102287.55
2019-03-23T19:47:44.681Z,102298.42
2019-03-23T19:50:13.692Z,102299.11
2019-03-23T19:52:42.165Z,102295.21
2019-03-23T19:55:11.714Z,102298.59
2019-03-23T19:57:40.161Z,102301.15
2019-03-23T20:00:11.943Z,102302.44
2019-03-23T20:02:40.430Z,102298.13
2019-03-23T20:05:09.056Z,102298.48
2019-03-23T20:07:37.499Z,102299.77
2019-03-23T20:10:09.905Z,102306.73
2019-03-23T20:12:38.390Z,102308.83
2019-03-23T20:15:08.133Z,102308.48
2019-03-23T20:17:36.637Z,102301.20
2019-03-23T20:20:08.111Z,102309.70
2019-03-23T20:22:42.223Z,102307.55
2019-03-23T20:25:42.169Z,102302.84
2019-03-23T20:28:10.841Z,102300.33
2019-03-23T20:33:48.544Z,102298.59
2019-03-23T20:36:16.952Z,102299.46
2019-03-23T20:38:45.406Z,102296.95
2019-03-23T20:41:13.824Z,102294.39
2019-03-23T20:43:42.253Z,102294.80
2019-03-23T20:46:13.043Z,102298.59
2019-03-23T20:48:41.389Z,102294.18
2019-03-23T20:51:10.199Z,102293.77
2019-03-23T20:53:39.656Z,102286.96
2019-03-23T20:56:08.075Z,102295.10
2019-03-23T20:58:36.522Z,102292.95
2019-03-23T21:01:05.051Z,102291.73
2019-03-23T21:03:33.532Z,102289.11
2019-03-23T21:06:01.971Z,102288.65
2019-03-23T21:08:30.528Z,102281.33
2019-03-23T21:10:58.956Z,102275.74
2019-03-23T21:13:27.475Z,102286.39
2019-03-23T21:15:55.927Z,102278.25
2019-03-23T21:18:24.367Z,102274.00
2019-03-23T21:20:52.907Z,102272.77
2019-03-23T21:23:21.319Z,102266.72
2019-03-23T21:25:49.739Z,102265.30
2019-03-23T21:28:18.238Z,102260.19
2019-03-23T21:30:46.834Z,102255.01
2019-03-23T21:33:15.276Z,102259.20
2019-03-23T21:35:43.712Z,102259.67
2019-03-23T21:38:12.147Z,102254.44
2019-03-23T21:40:40.633Z,102251.01
2019-03-23T21:43:09.072Z,102252.75
2019-03-23T21:45:37.544Z,102248.45
2019-03-23T21:48:06.110Z,102246.76
2019-03-23T21:50:34.622Z,102247.22
2019-03-23T21:53:03.007Z,102250.55
2019-03-23T21:55:31.435Z,102255.67
2019-03-23T21:57:59.863Z,102243.22
2019-03-23T22:00:33.472Z,102244.09
2019-03-23T22:03:02.126Z,102250.03
2019-03-23T22:05:30.559Z,102248.70
2019-03-23T22:07:59.084Z,102241.38
2019-03-23T22:10:27.506Z,102246.49
2019-03-23T22:12:55.931Z,102243.44
2019-03-23T22:15:24.370Z,102242.98
2019-03-23T22:17:52.828Z,102235.66
2019-03-23T22:20:21.276Z,102235.66
2019-03-23T22:22:49.743Z,102239.44
2019-03-23T22:25:18.165Z,102238.11
2019-03-23T22:27:46.575Z,102236.36
2019-03-23T22:30:15.256Z,102232.88
2019-03-23T22:32:43.864Z,102226.13
2019-03-23T22:35:12.421Z,102230.84
2019-03-23T22:37:41.022Z,102232.01
2019-03-23T22:40:10.916Z,102229.39
2019-03-23T22:42:39.324Z,102228.06
2019-03-23T22:45:11.400Z,102225.91
2019-03-23T22:47:39.860Z,102219.05
2019-03-23T22:50:09.326Z,102215.62
2019-03-23T22:52:37.942Z,102216.84
2019-03-23T22:55:08.280Z,102216.84
2019-03-23T22:57:36.876Z,102209.48
2019-03-23T23:00:15.108Z,102204.31
2019-03-23T23:02:43.594Z,102206.82
2019-03-23T23:05:12.175Z,102206.36
2019-03-23T23:07:40.607Z,102205.44
2019-03-23T23:10:09.600Z,102202.06
2019-03-23T23:12:38.118Z,102194.73
2019-03-23T23:15:07.774Z,102193.41
2019-03-23T23:17:36.469Z,102192.07
2019-03-23T23:20:07.430Z,102195.45
2019-03-23T23:22:35.899Z,102194.98
2019-03-23T23:25:06.646Z,102189.81
2019-03-23T23:27:35.126Z,102188.80
2019-03-23T23:30:05.018Z,102192.58
2019-03-23T23:32:33.431Z,102184.75
2019-03-23T23:35:01.855Z,102188.63
2019-03-23T23:37:30.305Z,102183.98
2019-03-23T23:39:58.817Z,102185.09
2019-03-23T23:42:27.327Z,102189.29
2019-03-23T23:44:55.790Z,102180.63
2019-03-23T23:47:24.303Z,102174.09
2019-03-23T23:49:52.682Z,102175.43
2019-03-23T23:52:21.124Z,102177.06
2019-03-23T23:54:49.532Z,102179.97
2019-03-23T23:57:17.946Z,102179.10
2019-03-23T23:59:46.557Z,102176.13
